Time;durP1;ratioP1;P1;durP2;ratioP2;P2;SDS_P1;SDS_P2;PMS_P1;PMS_P2;Temp;Humidity;BMP_temperature;BMP_pressure;BME280_temperature;BME280_humidity;BME280_pressure;Samples;Min_cycle;Max_cycle;Signal;HPM_P1;HPM_P2
2023/09/20 00:00:31;;;;;;;15.30;3.30;;;17.40;99.90;;;;;;5031896;28;20396;-82
2023/09/20 00:02:59;;;;;;;14.13;2.60;;;17.40;99.90;;;;;;5029061;28;20046;-82
2023/09/20 00:05:26;;;;;;;19.50;3.17;;;17.40;99.90;;;;;;5012773;28;20049;-82
2023/09/20 00:07:56;;;;;;;16.80;3.25;;;17.40;99.90;;;;;;5012303;28;20034;-82
2023/09/20 00:10:26;;;;;;;14.55;3.10;;;17.40;99.90;;;;;;5014466;28;20100;-82
2023/09/20 00:12:52;;;;;;;14.98;3.13;;;17.40;99.90;;;;;;5032157;28;20491;-82
2023/09/20 00:15:18;;;;;;;22.83;3.65;;;17.40;99.90;;;;;;5032366;28;20053;-82
2023/09/20 00:17:43;;;;;;;15.05;3.05;;;17.50;99.90;;;;;;5034316;28;20071;-83
2023/09/20 00:20:12;;;;;;;16.75;3.35;;;17.60;99.90;;;;;;5033223;28;20053;-82
2023/09/20 00:22:43;;;;;;;10.98;3.42;;;17.60;99.90;;;;;;5031788;28;20094;-82
2023/09/20 00:25:11;;;;;;;17.10;3.83;;;17.50;99.90;;;;;;5032063;28;20061;-82
2023/09/20 00:27:41;;;;;;;16.55;3.30;;;17.50;99.90;;;;;;5032318;28;20564;-81
2023/09/20 00:30:15;;;;;;;16.70;3.20;;;17.40;99.90;;;;;;5032617;28;20065;-82
2023/09/20 00:32:42;;;;;;;15.27;3.42;;;17.50;99.90;;;;;;5032145;28;20045;-82
2023/09/20 00:35:13;;;;;;;14.60;3.13;;;17.50;99.90;;;;;;5031728;28;20056;-82
2023/09/20 00:37:43;;;;;;;13.07;3.30;;;17.50;99.90;;;;;;5033394;28;20037;-82
2023/09/20 00:40:21;;;;;;;11.48;3.20;;;17.40;99.90;;;;;;5031845;28;20053;-82
2023/09/20 00:42:51;;;;;;;16.52;3.10;;;17.40;99.90;;;;;;5031575;28;20050;-82
2023/09/20 00:45:19;;;;;;;16.65;3.60;;;17.40;99.90;;;;;;5033640;28;20049;-82
2023/09/20 00:47:55;;;;;;;15.55;2.60;;;17.40;99.90;;;;;;5031965;28;20120;-82
2023/09/20 00:50:28;;;;;;;18.02;3.33;;;17.50;99.90;;;;;;5031419;28;20042;-82
2023/09/20 00:52:55;;;;;;;15.05;3.35;;;17.60;99.90;;;;;;5031471;28;20045;-82
2023/09/20 00:55:26;;;;;;;10.30;2.60;;;17.50;99.90;;;;;;5031817;28;20056;-82
2023/09/20 00:58:02;;;;;;;14.23;2.90;;;17.50;99.90;;;;;;5030880;28;20163;-82
2023/09/20 01:00:28;;;;;;;12.52;2.70;;;17.50;99.90;;;;;;5033454;28;20053;-82
2023/09/20 01:02:55;;;;;;;10.95;2.45;;;17.50;99.90;;;;;;5030737;28;20045;-82
2023/09/20 01:05:22;;;;;;;11.73;2.58;;;17.50;99.90;;;;;;5031309;28;20560;-82
2023/09/20 01:07:52;;;;;;;11.02;2.70;;;17.60;99.90;;;;;;5031724;28;20041;-82
2023/09/20 01:10:23;;;;;;;12.65;3.60;;;17.60;99.90;;;;;;5031561;28;20045;-82
2023/09/20 01:12:54;;;;;;;13.40;3.83;;;17.50;99.90;;;;;;5030940;28;20052;-82
2023/09/20 01:15:23;;;;;;;11.90;3.80;;;17.50;99.90;;;;;;5031493;28;20416;-82
2023/09/20 01:17:55;;;;;;;11.35;3.67;;;17.30;99.90;;;;;;5030333;28;20057;-81
2023/09/20 01:20:23;;;;;;;10.70;3.47;;;17.30;99.90;;;;;;5032614;28;20049;-81
2023/09/20 01:23:02;;;;;;;13.77;3.38;;;17.30;99.90;;;;;;5031343;28;20060;-82
2023/09/20 01:25:35;;;;;;;11.27;3.88;;;17.40;99.90;;;;;;5030781;28;20041;-82
2023/09/20 01:28:05;;;;;;;11.85;3.55;;;17.30;99.90;;;;;;5032160;28;20495;-80
2023/09/20 01:30:33;;;;;;;13.20;3.70;;;17.30;99.90;;;;;;5030752;28;20379;-81
2023/09/20 01:33:00;;;;;;;14.45;3.47;;;17.20;99.90;;;;;;5030532;28;20061;-82
2023/09/20 01:35:30;;;;;;;10.07;2.85;;;17.30;99.90;;;;;;5027830;28;20050;-81
2023/09/20 01:37:56;;;;;;;15.57;4.20;;;17.20;99.90;;;;;;5011311;28;20453;-81
2023/09/20 01:40:26;;;;;;;11.63;3.10;;;17.20;99.90;;;;;;5011168;28;20042;-81
2023/09/20 01:42:58;;;;;;;12.50;3.38;;;17.10;99.90;;;;;;5011452;28;20057;-81
2023/09/20 01:45:24;;;;;;;14.23;3.30;;;17.20;99.90;;;;;;5022641;28;20045;-81
2023/09/20 01:47:54;;;;;;;11.90;3.15;;;17.20;99.90;;;;;;5032163;28;20092;-82
2023/09/20 01:50:24;;;;;;;12.75;3.38;;;17.20;99.90;;;;;;5031378;28;20084;-82
2023/09/20 01:52:53;;;;;;;12.93;3.78;;;17.10;99.90;;;;;;5030098;28;20049;-82
2023/09/20 01:55:24;;;;;;;12.43;2.97;;;17.10;99.90;;;;;;5031411;28;20041;-81
2023/09/20 01:57:51;;;;;;;15.55;3.72;;;17.10;99.90;;;;;;5030768;28;20049;-82
2023/09/20 02:00:33;;;;;;;11.55;2.95;;;17.00;99.90;;;;;;5030741;28;20050;-82
2023/09/20 02:03:05;;;;;;;14.40;2.92;;;17.00;99.90;;;;;;5031331;28;20125;-82
2023/09/20 02:05:31;;;;;;;13.57;3.50;;;17.10;99.90;;;;;;5030259;28;20048;-82
2023/09/20 02:07:57;;;;;;;11.20;3.40;;;17.10;99.90;;;;;;5030047;28;20049;-82
2023/09/20 02:10:23;;;;;;;12.50;3.08;;;17.10;99.90;;;;;;5032187;28;20500;-82
2023/09/20 02:12:59;;;;;;;14.95;3.58;;;17.20;99.90;;;;;;5031867;28;20061;-82
2023/09/20 02:15:27;;;;;;;13.85;3.40;;;17.20;99.90;;;;;;5030663;28;20042;-82
2023/09/20 02:17:56;;;;;;;14.95;3.45;;;17.20;99.90;;;;;;5025684;28;20057;-82
2023/09/20 02:20:23;;;;;;;12.07;2.80;;;17.20;99.90;;;;;;5028782;28;20092;-82
2023/09/20 02:22:54;;;;;;;16.45;2.83;;;17.30;99.90;;;;;;5020598;28;20054;-82
2023/09/20 02:25:21;;;;;;;14.70;2.85;;;17.30;99.90;;;;;;5020390;28;20502;-82
2023/09/20 02:27:49;;;;;;;14.38;3.13;;;17.40;99.90;;;;;;5029389;28;20030;-82
2023/09/20 02:30:19;;;;;;;10.85;2.40;;;17.50;99.90;;;;;;5030730;28;20095;-82
2023/09/20 02:32:46;;;;;;;11.77;2.85;;;17.50;99.90;;;;;;5030726;28;20103;-81
2023/09/20 02:35:12;;;;;;;11.27;2.78;;;17.50;99.90;;;;;;5030173;28;20052;-82
2023/09/20 02:37:40;;;;;;;11.63;2.42;;;17.50;99.90;;;;;;5046774;28;20042;-82
2023/09/20 02:40:17;;;;;;;12.32;2.15;;;17.50;99.90;;;;;;5030197;28;20075;-81
2023/09/20 02:42:54;;;;;;;10.60;2.60;;;17.60;99.90;;;;;;5030491;28;20485;-81
2023/09/20 02:45:20;;;;;;;10.57;2.83;;;17.60;99.90;;;;;;5030570;28;20084;-81
2023/09/20 02:47:47;;;;;;;7.68;1.98;;;17.60;99.90;;;;;;5026799;28;20038;-81
2023/09/20 02:50:16;;;;;;;10.77;2.00;;;17.60;99.90;;;;;;5013352;28;20042;-82
2023/09/20 02:52:45;;;;;;;10.50;2.50;;;17.60;99.90;;;;;;5014881;28;20050;-82
2023/09/20 02:55:13;;;;;;;10.27;2.00;;;17.60;99.90;;;;;;5013826;28;20078;-82
2023/09/20 02:57:39;;;;;;;11.43;2.30;;;17.60;99.90;;;;;;5022177;28;20136;-82
2023/09/20 03:00:15;;;;;;;11.07;2.50;;;17.70;99.90;;;;;;5034824;28;20455;-82
2023/09/20 03:02:45;;;;;;;10.88;2.67;;;17.70;99.90;;;;;;5034232;28;20589;-82
2023/09/20 03:05:21;;;;;;;12.73;2.70;;;17.70;99.90;;;;;;5032857;28;20041;-82
2023/09/20 03:07:48;;;;;;;;;;;17.60;99.90;;;;;;5034052;28;20107;-82
2023/09/20 03:10:15;;;;;;;7.50;2.03;;;17.60;99.90;;;;;;5049359;28;19967;-82
2023/09/20 03:12:43;;;;;;;14.27;2.35;;;17.50;99.90;;;;;;5033764;28;20046;-82
2023/09/20 03:15:17;;;;;;;10.32;2.40;;;17.50;99.90;;;;;;5029763;28;20528;-82
2023/09/20 03:17:50;;;;;;;14.50;2.55;;;17.60;99.90;;;;;;5029714;28;20374;-83
2023/09/20 03:20:22;;;;;;;11.05;2.50;;;17.50;99.90;;;;;;5033718;28;20045;-82
2023/09/20 03:22:49;;;;;;;13.52;3.00;;;17.60;99.90;;;;;;5033513;28;20048;-83
2023/09/20 03:25:17;;;;;;;8.50;2.80;;;17.60;99.90;;;;;;5033181;28;20099;-82
2023/09/20 03:27:43;;;;;;;11.52;3.45;;;17.60;99.90;;;;;;5035004;28;20091;-83
2023/09/20 03:30:13;;;;;;;9.30;2.70;;;17.50;99.90;;;;;;5028753;28;20144;-83
2023/09/20 03:32:42;;;;;;;10.40;3.15;;;17.40;99.90;;;;;;5012585;28;20046;-82
2023/09/20 03:35:10;;;;;;;10.23;2.65;;;17.40;99.90;;;;;;5013264;28;20100;-82
2023/09/20 03:37:40;;;;;;;10.98;2.97;;;17.40;99.90;;;;;;5015420;28;20453;-82
2023/09/20 03:40:17;;;;;;;11.32;3.17;;;17.50;99.90;;;;;;5031417;28;20168;-81
2023/09/20 03:42:54;;;;;;;12.77;2.88;;;17.50;99.90;;;;;;5033411;28;20049;-82
2023/09/20 03:45:20;;;;;;;11.07;3.20;;;17.60;99.90;;;;;;5032810;28;20127;-80
2023/09/20 03:47:53;;;;;;;10.02;3.15;;;17.50;99.90;;;;;;5034479;28;20053;-84
2023/09/20 03:50:19;;;;;;;13.10;3.15;;;17.50;99.90;;;;;;5034114;28;20091;-81
2023/09/20 03:52:46;;;;;;;10.07;3.13;;;17.50;99.90;;;;;;5032691;28;20048;-82
2023/09/20 03:55:12;;;;;;;8.13;3.55;;;17.50;99.90;;;;;;5034050;28;20045;-83
2023/09/20 03:57:38;;;;;;;7.43;3.38;;;17.50;99.90;;;;;;5033033;28;20547;-85
2023/09/20 04:00:11;;;;;;;11.50;3.50;;;17.40;99.90;;;;;;5031675;28;20129;-81
2023/09/20 04:02:37;;;;;;;12.43;3.88;;;17.40;99.90;;;;;;5033114;28;20477;-81
2023/09/20 04:05:13;;;;;;;13.10;4.22;;;17.40;99.90;;;;;;5032540;28;20041;-80
2023/09/20 04:07:39;;;;;;;10.05;4.30;;;17.30;99.90;;;;;;5032621;28;20049;-85
2023/09/20 04:10:07;;;;;;;10.93;3.88;;;17.20;99.90;;;;;;5032282;28;20207;-80
2023/09/20 04:12:33;;;;;;;11.07;3.85;;;17.20;99.90;;;;;;5032449;28;20091;-80
2023/09/20 04:14:58;;;;;;;8.10;3.80;;;17.10;99.90;;;;;;5033232;28;20456;-82
2023/09/20 04:17:31;;;;;;;11.95;4.22;;;17.10;99.90;;;;;;5032468;28;20045;-83
2023/09/20 04:19:57;;;;;;;10.07;3.72;;;17.10;99.90;;;;;;5032142;28;20550;-83
2023/09/20 04:22:23;;;;;;;10.75;4.63;;;17.00;99.90;;;;;;5031184;28;20042;-84
2023/09/20 04:24:48;;;;;;;11.90;4.80;;;17.10;99.90;;;;;;5028600;28;20049;-84
2023/09/20 04:27:15;;;;;;;13.50;4.35;;;17.00;99.90;;;;;;5013347;28;20061;-84
2023/09/20 04:29:42;;;;;;;14.05;4.47;;;17.00;99.90;;;;;;5033339;28;20066;-84
2023/09/20 04:32:07;;;;;;;12.77;4.57;;;16.80;99.90;;;;;;5032350;28;20041;-84
2023/09/20 04:34:33;;;;;;;13.13;4.45;;;16.90;99.90;;;;;;5031947;28;20408;-83
2023/09/20 04:37:01;;;;;;;10.30;3.63;;;16.90;99.90;;;;;;5032149;28;20073;-83
2023/09/20 04:39:27;;;;;;;9.18;3.60;;;16.90;99.90;;;;;;5032520;28;20057;-86
2023/09/20 04:41:53;;;;;;;12.38;4.18;;;17.00;99.90;;;;;;5031984;28;20432;-85
2023/09/20 04:44:20;;;;;;;8.18;3.70;;;16.90;99.90;;;;;;5032909;28;20512;-85
2023/09/20 04:52:24;;;;;;;11.70;4.00;;;16.90;99.90;;;;;;4764248;26;20062;-85
2023/09/20 04:54:54;;;;;;;14.95;5.03;;;16.80;99.90;;;;;;4957398;28;20062;-88
2023/09/20 04:57:20;;;;;;;10.27;3.88;;;17.90;99.90;;;;;;4937524;29;20075;-85
2023/09/20 04:59:45;;;;;;;9.50;4.10;;;16.90;99.90;;;;;;4939402;29;20436;-88
2023/09/20 05:02:13;;;;;;;12.45;4.30;;;16.80;99.90;;;;;;4937424;29;20049;-82
2023/09/20 05:04:42;;;;;;;13.85;4.45;;;16.90;99.90;;;;;;4937573;29;20138;-77
2023/09/20 05:07:09;;;;;;;12.35;4.38;;;17.00;99.90;;;;;;5025270;23;20050;-80
2023/09/20 05:09:36;;;;;;;12.77;5.18;;;16.90;99.90;;;;;;4976097;28;20399;-80
2023/09/20 05:12:22;;;;;;;11.32;4.20;;;16.90;99.90;;;;;;4975389;28;20078;-79
2023/09/20 05:14:49;;;;;;;15.00;4.70;;;17.00;99.90;;;;;;4995678;28;20057;-75
2023/09/20 05:17:15;;;;;;;9.93;3.83;;;16.90;99.90;;;;;;4956448;28;20454;-77
2023/09/20 05:19:40;;;;;;;9.75;3.92;;;17.00;99.90;;;;;;4974150;28;20088;-77
2023/09/20 05:22:15;;;;;;;12.35;5.35;;;16.90;99.90;;;;;;4975144;28;20057;-80
2023/09/20 05:24:44;;;;;;;10.70;4.47;;;16.90;99.90;;;;;;4975216;28;20137;-88
2023/09/20 05:27:09;;;;;;;10.77;4.18;;;16.90;99.90;;;;;;4973759;28;20067;-84
2023/09/20 05:29:35;;;;;;;13.45;5.00;;;16.80;99.90;;;;;;4973338;28;20450;-79
2023/09/20 05:32:01;;;;;;;9.57;3.63;;;16.80;99.90;;;;;;4954477;28;20050;-78
2023/09/20 05:34:26;;;;;;;10.70;4.15;;;16.80;99.90;;;;;;4955369;28;20034;-80
2023/09/20 05:36:53;;;;;;;9.10;4.22;;;16.90;99.90;;;;;;4982576;28;20050;-77
2023/09/20 05:39:19;;;;;;;13.88;4.30;;;16.90;99.90;;;;;;4973411;28;20076;-76
2023/09/20 05:41:44;;;;;;;11.63;3.88;;;16.90;99.90;;;;;;4973964;28;20042;-77
2023/09/20 05:44:14;;;;;;;11.70;4.38;;;16.90;99.90;;;;;;4983385;28;20442;-76
2023/09/20 05:46:40;;;;;;;11.48;4.40;;;17.00;99.90;;;;;;4952842;28;20553;-76
2023/09/20 05:49:06;;;;;;;8.68;3.78;;;17.10;99.90;;;;;;4971858;28;20054;-76
2023/09/20 05:51:32;;;;;;;11.07;4.20;;;17.00;99.90;;;;;;4965179;28;20548;-76
2023/09/20 05:53:57;;;;;;;12.40;3.97;;;16.90;99.90;;;;;;4969241;28;20126;-76
2023/09/20 05:56:26;;;;;;;9.82;3.40;;;17.00;99.90;;;;;;4956223;28;20186;-76
2023/09/20 05:58:53;;;;;;;8.80;3.70;;;16.90;99.90;;;;;;4955002;28;20055;-76
2023/09/20 06:01:19;;;;;;;9.15;4.03;;;16.90;99.90;;;;;;4979631;28;20050;-76
2023/09/20 06:03:46;;;;;;;14.15;3.95;;;16.90;99.90;;;;;;4973229;28;20057;-76
2023/09/20 06:06:13;;;;;;;13.02;4.43;;;17.00;99.90;;;;;;4972727;28;20058;-76
2023/09/20 06:08:42;;;;;;;11.63;3.75;;;17.10;99.90;;;;;;4991078;28;20054;-76
2023/09/20 06:11:07;;;;;;;13.18;4.53;;;17.00;99.90;;;;;;4968357;28;20043;-76
2023/09/20 06:13:33;;;;;;;11.07;3.83;;;16.90;99.90;;;;;;4972536;28;20046;-77
2023/09/20 06:15:59;;;;;;;7.38;3.70;;;16.90;99.90;;;;;;4992551;28;20414;-76
2023/09/20 06:18:25;;;;;;;12.85;5.05;;;17.00;99.90;;;;;;4975365;28;20053;-76
2023/09/20 06:20:51;;;;;;;8.48;3.88;;;17.00;99.90;;;;;;4969816;28;20046;-76
2023/09/20 06:23:19;;;;;;;7.57;3.90;;;17.00;99.90;;;;;;4974712;28;20097;-76
2023/09/20 06:25:47;;;;;;;9.85;3.53;;;17.00;99.90;;;;;;4967464;28;20043;-76
2023/09/20 06:28:15;;;;;;;11.73;3.75;;;17.10;99.90;;;;;;4976935;28;20050;-76
2023/09/20 06:30:43;;;;;;;9.95;3.88;;;17.20;99.90;;;;;;4962457;28;20138;-76
2023/09/20 06:33:10;;;;;;;12.75;3.90;;;17.10;99.90;;;;;;4978390;28;20042;-75
2023/09/20 06:35:40;;;;;;;9.50;3.80;;;17.20;99.90;;;;;;4996131;28;20085;-76
2023/09/20 06:38:07;;;;;;;6.43;3.08;;;17.30;99.90;;;;;;4978873;28;20082;-76
2023/09/20 06:40:38;;;;;;;6.97;2.78;;;17.30;99.90;;;;;;4977619;28;20088;-76
2023/09/20 06:43:07;;;;;;;9.60;3.42;;;17.30;99.90;;;;;;4959140;28;20499;-76
2023/09/20 06:45:32;;;;;;;8.55;3.65;;;17.40;99.90;;;;;;4991985;28;20038;-76
2023/09/20 06:47:58;;;;;;;7.82;3.05;;;17.50;99.90;;;;;;4978441;28;20505;-76
2023/09/20 06:50:24;;;;;;;7.60;3.03;;;17.50;99.90;;;;;;4978697;28;20042;-76
2023/09/20 06:52:53;;;;;;;9.63;3.28;;;17.50;99.90;;;;;;4993662;28;20589;-76
2023/09/20 06:55:19;;;;;;;7.38;3.38;;;17.50;99.90;;;;;;4975977;28;20043;-76
2023/09/20 06:57:48;;;;;;;6.75;2.65;;;17.40;99.90;;;;;;4959050;28;20039;-77
2023/09/20 07:00:18;;;;;;;5.50;2.67;;;17.50;99.90;;;;;;4976304;28;20063;-76
2023/09/20 07:02:46;;;;;;;9.82;3.10;;;17.60;99.90;;;;;;4975799;28;20031;-76
2023/09/20 07:05:13;;;;;;;7.10;2.83;;;17.70;99.90;;;;;;4959183;28;20099;-76
2023/09/20 07:07:39;;;;;;;7.30;2.92;;;17.60;99.90;;;;;;4958799;28;20043;-76
2023/09/20 07:10:09;;;;;;;8.15;2.65;;;17.70;99.90;;;;;;4958210;28;20055;-77
2023/09/20 07:12:35;;;;;;;7.25;3.45;;;17.70;99.90;;;;;;4976090;28;20051;-77
2023/09/20 07:15:00;;;;;;;8.35;3.25;;;17.70;99.90;;;;;;4958674;28;20057;-77
2023/09/20 07:17:26;;;;;;;5.55;2.42;;;17.80;99.90;;;;;;4975852;28;20047;-76
2023/09/20 07:19:52;;;;;;;9.30;2.75;;;17.80;99.90;;;;;;4958420;28;20054;-76
2023/09/20 07:22:17;;;;;;;8.32;2.90;;;17.80;99.90;;;;;;4976153;28;20050;-77
2023/09/20 07:24:45;;;;;;;10.52;3.40;;;17.80;99.90;;;;;;4974415;28;20395;-77
2023/09/20 07:27:12;;;;;;;7.30;2.80;;;17.80;99.90;;;;;;4978240;28;20456;-76
2023/09/20 07:29:40;;;;;;;5.85;2.88;;;17.80;99.90;;;;;;4995248;28;20089;-77
2023/09/20 07:32:06;;;;;;;9.27;3.05;;;17.80;99.90;;;;;;4977058;28;20081;-76
2023/09/20 07:34:35;;;;;;;6.70;2.78;;;17.80;99.90;;;;;;4968576;28;20078;-76
2023/09/20 07:37:02;;;;;;;8.93;2.78;;;18.00;99.90;;;;;;4977160;28;20046;-77
2023/09/20 07:39:30;;;;;;;7.95;2.78;;;17.80;99.90;;;;;;4995034;28;20050;-77
2023/09/20 07:47:20;;;;;;;7.25;2.60;;;17.80;99.90;;;;;;4992297;28;20061;-76
2023/09/20 07:50:07;;;;;;;8.93;3.33;;;17.80;99.90;;;;;;4977089;28;20061;-76
2023/09/20 07:52:35;;;;;;;8.63;3.17;;;17.80;99.90;;;;;;4977437;28;20109;-76
2023/09/20 07:55:04;;;;;;;7.03;2.95;;;17.90;99.90;;;;;;5004695;28;20097;-77
2023/09/20 07:57:30;;;;;;;8.80;2.67;;;18.00;99.90;;;;;;4978583;28;20134;-77
2023/09/20 07:59:59;;;;;;;8.13;3.17;;;18.00;99.90;;;;;;4993301;28;20137;-76
2023/09/20 08:02:25;;;;;;;5.15;2.53;;;18.00;99.90;;;;;;4977160;28;20475;-77
2023/09/20 08:04:51;;;;;;;8.55;3.13;;;18.00;99.90;;;;;;4977104;28;20068;-76
2023/09/20 08:07:19;;;;;;;5.68;2.95;;;18.00;99.90;;;;;;4993785;28;20038;-77
2023/09/20 08:09:45;;;;;;;5.82;2.88;;;18.00;99.90;;;;;;4977069;28;20045;-76
2023/09/20 08:12:11;;;;;;;5.43;2.67;;;18.00;99.90;;;;;;4976941;28;20042;-77
2023/09/20 08:14:38;;;;;;;7.50;3.38;;;18.10;99.90;;;;;;4976579;28;20054;-77
2023/09/20 08:19:49;;;;;;;9.23;4.20;;;18.20;99.90;;;;;;4993984;28;20054;-76
2023/09/20 08:22:17;;;;;;;9.02;3.50;;;18.20;99.90;;;;;;4977099;28;20057;-77
2023/09/20 09:00:39;;;;;;;6.10;3.63;;;20.20;99.90;;;;;;4967328;28;20410;-77
2023/09/20 09:03:05;;;;;;;6.18;2.95;;;20.80;99.90;;;;;;4993141;28;20050;-76
2023/09/20 09:05:34;;;;;;;8.00;2.85;;;21.20;99.90;;;;;;4975996;28;20046;-76
2023/09/20 09:08:02;;;;;;;6.25;3.28;;;21.10;99.90;;;;;;4975668;28;20046;-76
2023/09/20 09:10:28;;;;;;;5.13;2.88;;;20.70;99.90;;;;;;4975395;28;20050;-77
2023/09/20 09:12:55;;;;;;;5.93;2.90;;;20.90;99.90;;;;;;4975812;28;20057;-77
2023/09/20 09:15:22;;;;;;;5.95;3.10;;;22.00;99.90;;;;;;4993547;28;20050;-77
2023/09/20 09:17:48;;;;;;;6.72;2.80;;;22.90;99.90;;;;;;4975355;28;20089;-77
2023/09/20 09:20:16;;;;;;;9.80;2.97;;;23.60;99.90;;;;;;4991800;28;20426;-77
2023/09/20 09:22:44;;;;;;;8.40;3.08;;;23.80;99.90;;;;;;4976063;28;20038;-76
2023/09/20 09:25:11;;;;;;;4.47;2.58;;;24.10;99.90;;;;;;4975495;28;20058;-78
2023/09/20 09:27:38;;;;;;;6.80;2.88;;;24.20;99.90;;;;;;4980023;28;20079;-77
2023/09/20 09:30:08;;;;;;;8.48;2.85;;;24.10;99.90;;;;;;4975065;28;20060;-77
2023/09/20 09:32:41;;;;;;;7.95;2.63;;;23.10;99.90;;;;;;4975994;28;20073;-77
2023/09/20 09:35:08;;;;;;;6.65;2.70;;;22.40;99.90;;;;;;4992744;28;20046;-77
2023/09/20 09:37:35;;;;;;;7.72;2.90;;;21.50;99.90;;;;;;4975251;28;20410;-77
2023/09/20 09:40:03;;;;;;;5.00;2.50;;;21.10;99.90;;;;;;4975142;28;20104;-77
2023/09/20 09:42:32;;;;;;;6.22;3.28;;;20.70;99.90;;;;;;4974842;28;20073;-77
2023/09/20 09:44:59;;;;;;;6.35;3.42;;;20.40;99.90;;;;;;4974798;28;20050;-77
2023/09/20 09:47:25;;;;;;;4.95;2.90;;;20.30;99.90;;;;;;4975853;28;20081;-77
2023/09/20 09:49:54;;;;;;;6.32;3.15;;;20.10;99.90;;;;;;4974367;28;20050;-76
2023/09/20 09:52:28;;;;;;;5.65;2.83;;;20.10;99.90;;;;;;4992600;28;20046;-77
2023/09/20 09:54:55;;;;;;;6.50;2.90;;;20.00;99.90;;;;;;4975355;28;20046;-77
2023/09/20 09:57:21;;;;;;;6.50;2.92;;;19.80;99.90;;;;;;4975881;28;20092;-77
2023/09/20 09:59:51;;;;;;;4.20;2.72;;;21.10;99.90;;;;;;4978444;28;20057;-77
2023/09/20 10:02:18;;;;;;;7.72;2.97;;;19.60;99.90;;;;;;4979116;28;20046;-77
2023/09/20 10:04:50;;;;;;;5.05;2.85;;;19.40;99.90;;;;;;4979830;28;20490;-76
2023/09/20 10:07:18;;;;;;;5.97;3.20;;;19.30;99.90;;;;;;4979028;28;20046;-77
2023/09/20 10:09:49;;;;;;;4.85;3.10;;;19.20;99.90;;;;;;4979587;28;20133;-77
2023/09/20 10:12:21;;;;;;;5.47;2.83;;;19.00;99.90;;;;;;4978589;28;20093;-77
2023/09/20 10:14:48;;;;;;;5.18;2.83;;;18.90;99.90;;;;;;4979237;28;20046;-76
2023/09/20 10:17:17;;;;;;;4.22;3.10;;;19.00;99.90;;;;;;4978462;28;20091;-77
2023/09/20 10:19:42;;;;;;;5.50;3.30;;;18.90;99.90;;;;;;4978706;28;20054;-77
2023/09/20 10:22:10;;;;;;;5.95;3.17;;;18.80;99.90;;;;;;4978912;28;20046;-77
2023/09/20 10:24:50;;;;;;;5.43;3.47;;;18.70;99.90;;;;;;4978826;28;20553;-76
2023/09/20 10:27:17;;;;;;;8.23;4.22;;;18.60;99.90;;;;;;4978807;28;20077;-77
2023/09/20 10:29:58;;;;;;;8.40;4.07;;;18.70;99.90;;;;;;4978929;28;20046;-77
2023/09/20 10:32:31;;;;;;;7.95;3.90;;;18.70;99.90;;;;;;4978597;28;20093;-77
2023/09/20 10:35:33;;;;;;;7.82;3.60;;;18.70;99.90;;;;;;4978188;28;20490;-77
2023/09/20 10:38:05;;;;;;;7.00;3.47;;;18.90;99.90;;;;;;4978059;28;20050;-77
2023/09/20 10:40:46;;;;;;;8.60;3.45;;;18.90;99.90;;;;;;4978279;28;20062;-76
2023/09/20 10:43:13;;;;;;;8.48;3.83;;;18.80;99.90;;;;;;4979087;28;20057;-77
2023/09/20 10:45:39;;;;;;;7.93;3.33;;;18.70;99.90;;;;;;4978604;28;20050;-77
2023/09/20 10:48:18;;;;;;;8.35;4.05;;;18.80;99.90;;;;;;4977231;28;20042;-77
2023/09/20 10:50:57;;;;;;;6.10;3.92;;;18.70;99.90;;;;;;4978281;28;20057;-77
2023/09/20 10:53:52;;;;;;;6.93;4.05;;;18.70;99.90;;;;;;4979028;28;20053;-77
2023/09/20 10:56:54;;;;;;;6.90;3.78;;;18.70;99.90;;;;;;4977846;28;20051;-77
2023/09/20 10:59:27;;;;;;;7.10;4.00;;;18.70;99.90;;;;;;4976233;28;20410;-77
2023/09/20 11:02:05;;;;;;;7.30;3.80;;;18.70;99.90;;;;;;4977505;28;20042;-76
2023/09/20 11:04:32;;;;;;;7.72;4.00;;;18.70;99.90;;;;;;4978537;28;20097;-77
2023/09/20 11:07:00;;;;;;;7.88;3.78;;;18.70;99.90;;;;;;4978003;28;20058;-76
2023/09/20 11:09:31;;;;;;;8.27;4.05;;;18.70;99.90;;;;;;4977539;28;20085;-77
2023/09/20 11:12:04;;;;;;;6.13;3.78;;;18.50;99.90;;;;;;4995092;28;20042;-77
2023/09/20 11:14:31;;;;;;;7.20;4.13;;;18.60;99.90;;;;;;5134090;23;20046;-77
2023/09/20 11:16:57;;;;;;;6.30;4.03;;;18.60;99.90;;;;;;4977453;28;20042;-77
2023/09/20 11:19:22;;;;;;;5.78;3.55;;;18.70;99.90;;;;;;4977645;28;20050;-77
2023/09/20 11:21:48;;;;;;;11.27;4.25;;;18.70;99.90;;;;;;4977893;28;20047;-77
2023/09/20 11:24:15;;;;;;;10.45;3.85;;;18.70;99.90;;;;;;4977592;28;20049;-77
2023/09/20 11:26:43;;;;;;;5.28;3.33;;;18.80;99.90;;;;;;4979898;23;20517;-77
2023/09/20 11:29:09;;;;;;;7.90;3.65;;;18.70;99.90;;;;;;4977077;28;20053;-78
2023/09/20 11:31:37;;;;;;;6.57;3.80;;;18.70;99.90;;;;;;4977663;28;20046;-77
2023/09/20 11:34:04;;;;;;;9.52;3.92;;;18.60;99.90;;;;;;4977502;28;20050;-77
2023/09/20 11:36:37;;;;;;;6.18;3.40;;;18.50;99.90;;;;;;4977402;28;20181;-77
2023/09/20 11:39:05;;;;;;;7.90;3.92;;;18.70;99.90;;;;;;4993651;28;20117;-76
2023/09/20 11:41:36;;;;;;;7.72;4.22;;;18.70;99.90;;;;;;4975919;28;20185;-76
2023/09/20 11:44:05;;;;;;;6.75;3.95;;;18.70;99.90;;;;;;4957819;28;20047;-77
2023/09/20 11:46:35;;;;;;;8.18;3.75;;;18.60;99.90;;;;;;4958229;28;20061;-77
2023/09/20 11:49:03;;;;;;;5.80;3.70;;;18.70;99.90;;;;;;4957925;28;20050;-77
2023/09/20 11:51:35;;;;;;;7.38;4.07;;;18.70;99.90;;;;;;4977046;28;20544;-77
2023/09/20 11:54:05;;;;;;;8.93;4.20;;;18.70;99.90;;;;;;4971583;28;20423;-79
2023/09/20 11:56:32;;;;;;;8.02;3.97;;;18.70;99.90;;;;;;4977273;28;20474;-77
2023/09/20 11:59:18;;;;;;;7.10;3.95;;;18.70;99.90;;;;;;4976856;28;20043;-78
2023/09/20 12:01:46;;;;;;;7.55;4.05;;;18.70;99.90;;;;;;4972105;28;20050;-79
2023/09/20 12:04:13;;;;;;;9.52;4.85;;;18.70;99.90;;;;;;4966057;28;20121;-80
2023/09/20 12:06:39;;;;;;;8.35;4.45;;;18.70;99.90;;;;;;4961156;28;20057;-80
2023/09/20 12:09:09;;;;;;;6.70;4.63;;;18.70;99.90;;;;;;4975827;28;20054;-74
2023/09/20 12:11:35;;;;;;;9.63;4.57;;;18.70;99.90;;;;;;4988656;28;20061;-76
2023/09/20 12:14:02;;;;;;;9.25;4.65;;;18.40;99.90;;;;;;4989148;28;20538;-75
2023/09/20 12:16:31;;;;;;;11.05;4.85;;;18.70;99.90;;;;;;4988654;28;20085;-75
2023/09/20 12:18:58;;;;;;;8.05;4.50;;;18.70;99.90;;;;;;4970545;28;20398;-73
2023/09/20 12:21:25;;;;;;;8.15;4.60;;;18.70;99.90;;;;;;4968310;28;20453;-75
2023/09/20 12:23:51;;;;;;;7.25;3.95;;;18.70;99.90;;;;;;4968923;28;20108;-75
2023/09/20 12:26:17;;;;;;;7.95;3.63;;;18.70;99.90;;;;;;4975990;28;20054;-75
2023/09/20 12:36:34;;;;;;;8.52;3.97;;;18.70;99.90;;;;;;4958008;28;21030;-74
2023/09/20 12:42:38;;;;;;;6.18;3.80;;;18.60;99.90;;;;;;5402852;23;20130;-74
2023/09/20 12:45:08;;;;;;;8.90;4.00;;;18.70;99.90;;;;;;4971748;28;20047;-75
2023/09/20 12:47:35;;;;;;;9.13;3.63;;;18.70;99.90;;;;;;4956083;28;20043;-74
2023/09/20 12:50:06;;;;;;;7.85;4.03;;;18.60;99.90;;;;;;4954588;28;20053;-76
2023/09/20 12:52:31;;;;;;;6.13;3.92;;;18.50;99.90;;;;;;4956478;28;20051;-78
2023/09/20 12:57:32;;;;;;;7.40;3.78;;;18.60;99.90;;;;;;5496137;23;20059;-78
2023/09/20 13:00:00;;;;;;;7.68;3.78;;;18.60;99.90;;;;;;4969334;28;20046;-79
2023/09/20 13:02:27;;;;;;;9.02;3.85;;;18.50;99.90;;;;;;4956517;28;20042;-77
2023/09/20 13:04:55;;;;;;;6.15;3.30;;;18.60;99.90;;;;;;4951035;28;20545;-80
2023/09/20 13:07:25;;;;;;;7.22;3.38;;;18.60;99.90;;;;;;4947005;29;20070;-79
2023/09/20 13:09:50;;;;;;;6.97;3.58;;;18.80;99.90;;;;;;4961714;28;20096;-78
2023/09/20 13:12:16;;;;;;;6.47;3.40;;;18.70;99.90;;;;;;4973444;28;20490;-80
2023/09/20 13:14:42;;;;;;;6.50;3.60;;;18.80;99.90;;;;;;4976991;28;20486;-75
2023/09/20 13:17:09;;;;;;;5.95;3.58;;;18.80;99.90;;;;;;4958331;28;20457;-74
2023/09/20 13:19:37;;;;;;;7.70;3.50;;;18.90;99.90;;;;;;4963312;28;20122;-75
2023/09/20 13:22:04;;;;;;;5.32;3.17;;;18.90;99.90;;;;;;4959604;28;20395;-75
2023/09/20 13:24:34;;;;;;;5.32;3.33;;;18.90;99.90;;;;;;4981651;28;20055;-75
2023/09/20 13:27:01;;;;;;;6.95;3.50;;;19.10;99.90;;;;;;4962531;28;20569;-74
2023/09/20 13:29:30;;;;;;;7.65;3.97;;;19.20;99.90;;;;;;4967337;28;20046;-75
2023/09/20 13:31:55;;;;;;;8.30;3.28;;;19.30;99.90;;;;;;4957359;28;20125;-74
2023/09/20 13:34:22;;;;;;;7.57;3.70;;;19.40;99.90;;;;;;4953307;28;20133;-75
2023/09/20 13:36:48;;;;;;;10.73;3.55;;;19.60;99.90;;;;;;4974261;28;20065;-75
2023/09/20 13:39:16;;;;;;;6.70;3.03;;;19.60;99.90;;;;;;4984291;28;20434;-76
2023/09/20 13:41:48;;;;;;;6.25;3.92;;;19.80;99.90;;;;;;4985163;28;20050;-72
2023/09/20 13:44:18;;;;;;;7.78;3.65;;;19.90;99.90;;;;;;4970931;28;20368;-79
2023/09/20 13:46:43;;;;;;;6.88;3.70;;;19.80;99.90;;;;;;4970516;28;20084;-81
2023/09/20 13:49:12;;;;;;;7.47;4.07;;;19.70;99.90;;;;;;4957111;28;20066;-86
2023/09/20 13:51:38;;;;;;;8.57;3.53;;;19.90;99.90;;;;;;4963736;28;20078;-77
2023/09/20 13:54:10;;;;;;;5.43;3.47;;;20.10;99.90;;;;;;4963898;28;20129;-78